createdAt,value
2019-04-29T15:24:35.413Z,55.30
2019-04-29T15:26:40.712Z,55.30
2019-04-29T15:28:51.933Z,55.30
2019-04-29T15:30:57.550Z,55.40
2019-04-29T15:33:04.650Z,55.40
2019-04-29T15:35:13.626Z,55.30
2019-04-29T15:37:18.842Z,55.40
2019-04-29T15:39:25.472Z,55.40
2019-04-29T15:41:33.226Z,55.40
2019-04-29T15:43:47.078Z,55.40
2019-04-29T15:45:45.505Z,55.50
2019-04-29T15:47:51.052Z,55.50
2019-04-29T15:50:11.233Z,55.50
2019-04-29T15:52:08.097Z,55.50
2019-04-29T15:54:14.483Z,55.50
2019-04-29T15:56:28.966Z,55.40
2019-04-29T15:58:27.491Z,55.50
2019-04-29T16:00:37.917Z,55.40
2019-04-29T16:02:42.805Z,55.40
2019-04-29T16:04:53.767Z,55.60
2019-04-29T16:07:19.166Z,55.50
2019-04-29T16:09:50.625Z,55.50
2019-04-29T16:11:58.250Z,55.50
2019-04-29T16:14:09.463Z,55.50
2019-04-29T16:16:11.548Z,55.50
2019-04-29T16:18:16.513Z,55.50
2019-04-29T16:20:22.591Z,55.30
2019-04-29T16:22:27.936Z,55.30
2019-04-29T16:24:38.391Z,55.40
2019-04-29T16:26:39.597Z,55.30
2019-04-29T16:28:45.009Z,55.30
2019-04-29T16:30:49.980Z,55.30
2019-04-29T16:32:54.945Z,55.30
2019-04-29T16:34:59.891Z,55.30
2019-04-29T16:37:05.224Z,55.40
2019-04-29T16:39:10.263Z,55.30
2019-04-29T16:41:35.580Z,55.40
2019-04-29T16:43:43.086Z,55.50
2019-04-29T16:45:57.677Z,55.40
2019-04-29T16:48:02.746Z,55.40
2019-04-29T16:50:07.670Z,55.40
2019-04-29T16:52:12.636Z,55.30
2019-04-29T16:54:20.451Z,55.30
2019-04-29T16:56:23.914Z,55.40
2019-04-29T16:58:28.590Z,55.40
2019-04-29T17:00:35.544Z,55.30
2019-04-29T17:02:40.575Z,55.30
2019-04-29T17:04:45.760Z,55.30
2019-04-29T17:07:11.326Z,55.30
2019-04-29T17:09:10.073Z,55.50
2019-04-29T17:11:20.644Z,55.70
2019-04-29T17:13:26.996Z,55.70
2019-04-29T17:15:31.854Z,55.90
2019-04-29T17:17:37.087Z,55.70
2019-04-29T17:19:42.104Z,55.80
2019-04-29T17:21:47.166Z,55.60
2019-04-29T17:23:52.079Z,55.50
2019-04-29T17:25:57.044Z,55.60
2019-04-29T17:28:25.419Z,55.60
2019-04-29T17:30:48.496Z,55.60
2019-04-29T17:33:02.256Z,55.60
2019-04-29T17:35:08.528Z,55.60
2019-04-29T17:37:13.419Z,55.60
2019-04-29T17:39:18.358Z,55.80
2019-04-29T17:41:23.501Z,55.60
2019-04-29T17:43:47.672Z,55.60
2019-04-29T17:46:03.982Z,55.60
2019-04-29T17:48:24.841Z,55.70
2019-04-29T17:50:33.769Z,55.70
2019-04-29T17:52:38.762Z,55.70
2019-04-29T17:54:45.463Z,55.70
2019-04-29T17:57:23.705Z,55.80
2019-04-29T17:59:29.610Z,55.70
2019-04-29T18:01:51.832Z,55.80
2019-04-29T18:04:19.912Z,55.90
2019-04-29T18:06:28.505Z,55.90
2019-04-29T18:08:38.078Z,55.90
2019-04-29T18:10:46.380Z,55.90
2019-04-29T21:09:31.612Z,55.10
2019-04-29T21:11:45.792Z,55.10
2019-04-29T21:13:57.276Z,55.10
2019-04-29T21:16:15.711Z,55.20
2019-04-29T21:18:20.647Z,55.20
2019-04-29T21:20:26.445Z,55.30
2019-04-29T21:22:31.527Z,55.50
2019-04-29T21:24:36.321Z,55.50
2019-04-29T21:26:44.535Z,55.60
2019-04-29T21:28:48.626Z,55.70
2019-04-29T21:30:54.989Z,55.80
2019-04-29T21:33:00.119Z,55.80
2019-04-29T21:35:24.973Z,56.00
2019-04-29T21:37:39.971Z,56.00
2019-04-29T21:40:08.840Z,56.10
2019-04-29T21:42:17.665Z,56.10
2019-04-29T21:44:27.895Z,56.30
2019-04-29T21:46:30.522Z,56.20
2019-04-29T21:48:37.311Z,56.30
2019-04-29T21:50:41.767Z,56.20
2019-04-29T21:52:46.908Z,56.40
2019-04-29T21:54:51.923Z,56.40
2019-04-29T21:56:56.874Z,56.50
2019-04-29T21:59:02.722Z,56.60
2019-04-29T22:01:08.740Z,56.60
2019-04-29T22:03:15.447Z,56.70
2019-04-29T22:05:20.580Z,56.70
2019-04-29T22:07:28.201Z,56.70
2019-04-29T22:09:36.071Z,56.70
2019-04-29T22:11:43.306Z,56.70
2019-04-29T22:13:46.311Z,56.80
2019-04-29T22:15:51.146Z,57.00
2019-04-29T22:18:01.183Z,56.90
2019-04-29T22:20:07.433Z,57.00
2019-04-29T22:22:10.688Z,56.90
2019-04-29T22:24:15.528Z,57.00
2019-04-29T22:26:23.327Z,57.00
2019-04-29T22:28:26.807Z,57.10
2019-04-29T22:30:31.727Z,57.00
2019-04-29T22:32:36.577Z,57.00
2019-04-29T22:34:42.279Z,57.10
2019-04-29T22:36:48.156Z,57.10
2019-04-29T22:38:53.639Z,57.10
2019-04-29T22:41:00.260Z,57.20
2019-04-29T22:43:15.020Z,57.20
2019-04-29T22:45:21.252Z,57.30
2019-04-29T22:47:26.072Z,57.30
2019-04-29T22:49:30.836Z,57.30
2019-04-29T22:51:35.612Z,57.30
2019-04-29T22:53:46.732Z,57.30
2019-04-29T22:55:48.500Z,57.30
2019-04-29T22:57:55.403Z,57.30
2019-04-29T22:59:59.948Z,57.40
2019-04-29T23:02:05.847Z,57.40
2019-04-29T23:04:14.601Z,57.40
2019-04-29T23:06:17.354Z,57.50
2019-04-29T23:08:22.212Z,57.40
2019-04-29T23:10:28.072Z,57.90
2019-04-29T23:12:35.047Z,57.30
2019-04-29T23:14:40.362Z,57.40
2019-04-29T23:16:47.482Z,57.60
2019-04-29T23:18:52.367Z,57.70
2019-04-29T23:21:17.305Z,57.70
2019-04-29T23:23:33.146Z,57.80
2019-04-29T23:25:43.044Z,57.80
2019-04-29T23:27:48.389Z,57.80
2019-04-29T23:29:53.414Z,57.80
2019-04-29T23:31:59.792Z,57.80
2019-04-29T23:34:05.807Z,58.50
2019-04-29T23:36:14.063Z,57.90
2019-04-29T23:38:17.354Z,57.90
2019-04-29T23:40:22.214Z,58.00
2019-04-29T23:42:28.208Z,58.00
2019-04-29T23:44:33.044Z,58.00
2019-04-29T23:46:37.854Z,58.00
2019-04-29T23:48:42.694Z,57.90
2019-04-29T23:50:49.615Z,58.00
2019-04-29T23:52:55.662Z,58.10
2019-04-29T23:55:01.531Z,58.10
2019-04-29T23:57:16.428Z,58.10
2019-04-29T23:59:25.353Z,58.00
